sensor_id;sensor_type;location;lat;lon;timestamp;pressure;altitude;pressure_sealevel;temperature;humidity
61870;BME280;47810;42.264;23.826;2023-04-07T00:00:51;93529.78;;;1.13;55.58
61870;BME280;47810;42.264;23.826;2023-04-07T00:03:17;93535.66;;;1.19;55.72
61870;BME280;47810;42.264;23.826;2023-04-07T00:05:42;93528.13;;;1.11;55.53
61870;BME280;47810;42.264;23.826;2023-04-07T00:08:08;93533.38;;;1.09;55.15
61870;BME280;47810;42.264;23.826;2023-04-07T00:10:34;93528.66;;;1.21;55.02
61870;BME280;47810;42.264;23.826;2023-04-07T00:12:59;93532.78;;;1.01;56.70
61870;BME280;47810;42.264;23.826;2023-04-07T00:15:25;93527.94;;;1.15;55.51
61870;BME280;47810;42.264;23.826;2023-04-07T00:17:50;93520.84;;;0.96;56.42
61870;BME280;47810;42.264;23.826;2023-04-07T00:20:16;93524.78;;;1.07;56.04
61870;BME280;47810;42.264;23.826;2023-04-07T00:22:41;93526.25;;;1.14;55.39
61870;BME280;47810;42.264;23.826;2023-04-07T00:25:07;93524.69;;;1.10;54.49
61870;BME280;47810;42.264;23.826;2023-04-07T00:27:33;93528.81;;;1.16;54.95
61870;BME280;47810;42.264;23.826;2023-04-07T00:29:58;93516.88;;;1.10;54.06
61870;BME280;47810;42.264;23.826;2023-04-07T00:32:24;93518.84;;;1.04;55.16
61870;BME280;47810;42.264;23.826;2023-04-07T00:34:49;93524.56;;;0.88;54.94
61870;BME280;47810;42.264;23.826;2023-04-07T00:37:15;93526.09;;;0.94;55.62
61870;BME280;47810;42.264;23.826;2023-04-07T00:39:41;93524.38;;;1.20;53.24
61870;BME280;47810;42.264;23.826;2023-04-07T00:42:06;93514.69;;;1.23;54.31
61870;BME280;47810;42.264;23.826;2023-04-07T00:44:33;93525.09;;;1.23;53.99
61870;BME280;47810;42.264;23.826;2023-04-07T00:46:59;93525.25;;;1.19;54.83
61870;BME280;47810;42.264;23.826;2023-04-07T00:49:25;93516.06;;;1.08;53.78
61870;BME280;47810;42.264;23.826;2023-04-07T00:51:53;93526.78;;;0.99;53.45
61870;BME280;47810;42.264;23.826;2023-04-07T00:54:19;93519.63;;;1.06;54.67
61870;BME280;47810;42.264;23.826;2023-04-07T00:56:46;93525.09;;;0.98;54.41
61870;BME280;47810;42.264;23.826;2023-04-07T00:59:12;93525.53;;;1.11;53.20
61870;BME280;47810;42.264;23.826;2023-04-07T01:04:32;93522.66;;;1.19;53.80
61870;BME280;47810;42.264;23.826;2023-04-07T01:07:10;93526.69;;;1.02;53.15
61870;BME280;47810;42.264;23.826;2023-04-07T01:09:39;93527.13;;;0.90;52.80
61870;BME280;47810;42.264;23.826;2023-04-07T01:14:59;93519.59;;;1.07;53.12
61870;BME280;47810;42.264;23.826;2023-04-07T01:17:29;93522.44;;;0.75;53.86
61870;BME280;47810;42.264;23.826;2023-04-07T01:20:03;93519.44;;;0.87;53.02
61870;BME280;47810;42.264;23.826;2023-04-07T01:22:52;93526.78;;;0.99;52.65
61870;BME280;47810;42.264;23.826;2023-04-07T01:30:29;93519.78;;;1.01;53.40
61870;BME280;47810;42.264;23.826;2023-04-07T01:32:57;93515.97;;;1.11;54.67
61870;BME280;47810;42.264;23.826;2023-04-07T01:35:23;93523.00;;;1.09;54.91
61870;BME280;47810;42.264;23.826;2023-04-07T01:37:49;93518.63;;;0.85;55.53
61870;BME280;47810;42.264;23.826;2023-04-07T01:40:16;93521.22;;;0.85;56.17
61870;BME280;47810;42.264;23.826;2023-04-07T01:42:42;93518.50;;;0.88;56.58
61870;BME280;47810;42.264;23.826;2023-04-07T01:45:09;93526.31;;;0.88;55.43
61870;BME280;47810;42.264;23.826;2023-04-07T01:47:35;93524.25;;;0.44;56.68
61870;BME280;47810;42.264;23.826;2023-04-07T01:50:02;93517.84;;;0.56;57.65
61870;BME280;47810;42.264;23.826;2023-04-07T01:52:31;93521.72;;;0.43;55.29
61870;BME280;47810;42.264;23.826;2023-04-07T01:54:57;93520.78;;;0.72;56.26
61870;BME280;47810;42.264;23.826;2023-04-07T01:57:23;93520.50;;;0.55;55.41
61870;BME280;47810;42.264;23.826;2023-04-07T01:59:48;93525.78;;;0.78;55.26
61870;BME280;47810;42.264;23.826;2023-04-07T02:02:14;93529.56;;;0.41;56.13
61870;BME280;47810;42.264;23.826;2023-04-07T02:04:44;93517.53;;;0.65;55.37
61870;BME280;47810;42.264;23.826;2023-04-07T02:07:57;93523.13;;;0.53;53.86
61870;BME280;47810;42.264;23.826;2023-04-07T02:10:02;93523.03;;;0.56;55.08
61870;BME280;47810;42.264;23.826;2023-04-07T02:12:29;93525.66;;;0.28;57.16
61870;BME280;47810;42.264;23.826;2023-04-07T02:14:57;93528.31;;;0.53;57.07
61870;BME280;47810;42.264;23.826;2023-04-07T02:17:23;93518.56;;;0.33;56.30
61870;BME280;47810;42.264;23.826;2023-04-07T02:19:50;93521.72;;;0.43;57.12
61870;BME280;47810;42.264;23.826;2023-04-07T02:22:17;93512.63;;;0.56;56.04
61870;BME280;47810;42.264;23.826;2023-04-07T02:24:43;93520.31;;;0.33;56.48
61870;BME280;47810;42.264;23.826;2023-04-07T02:27:08;93517.00;;;0.28;55.97
61870;BME280;47810;42.264;23.826;2023-04-07T02:29:34;93514.16;;;0.35;56.58
61870;BME280;47810;42.264;23.826;2023-04-07T02:31:59;93514.53;;;0.51;57.40
61870;BME280;47810;42.264;23.826;2023-04-07T02:34:25;93521.06;;;0.36;56.90
61870;BME280;47810;42.264;23.826;2023-04-07T02:36:50;93519.81;;;0.48;56.25
61870;BME280;47810;42.264;23.826;2023-04-07T02:39:16;93518.41;;;0.38;56.19
61870;BME280;47810;42.264;23.826;2023-04-07T02:41:41;93519.50;;;0.32;56.84
61870;BME280;47810;42.264;23.826;2023-04-07T02:44:07;93514.28;;;0.32;57.14
61870;BME280;47810;42.264;23.826;2023-04-07T02:46:32;93520.72;;;0.20;57.41
61870;BME280;47810;42.264;23.826;2023-04-07T02:48:58;93522.31;;;0.25;58.48
61870;BME280;47810;42.264;23.826;2023-04-07T02:51:23;93523.59;;;0.38;57.69
61870;BME280;47810;42.264;23.826;2023-04-07T02:53:49;93521.91;;;0.37;59.39
61870;BME280;47810;42.264;23.826;2023-04-07T02:56:15;93527.41;;;0.28;59.28
61870;BME280;47810;42.264;23.826;2023-04-07T02:58:41;93515.81;;;0.11;59.95
61870;BME280;47810;42.264;23.826;2023-04-07T03:01:06;93527.47;;;-0.02;59.60
61870;BME280;47810;42.264;23.826;2023-04-07T03:03:32;93523.88;;;0.02;57.75
61870;BME280;47810;42.264;23.826;2023-04-07T03:05:57;93520.25;;;0.08;57.83
61870;BME280;47810;42.264;23.826;2023-04-07T03:08:23;93521.91;;;0.10;57.89
61870;BME280;47810;42.264;23.826;2023-04-07T03:10:49;93521.75;;;0.15;57.36
61870;BME280;47810;42.264;23.826;2023-04-07T03:13:14;93527.78;;;0.15;55.20
61870;BME280;47810;42.264;23.826;2023-04-07T03:15:43;93523.72;;;0.35;55.09
61870;BME280;47810;42.264;23.826;2023-04-07T03:18:08;93523.56;;;0.39;55.64
61870;BME280;47810;42.264;23.826;2023-04-07T03:20:35;93531.38;;;0.39;55.17
61870;BME280;47810;42.264;23.826;2023-04-07T03:23:01;93526.63;;;0.52;55.31
61870;BME280;47810;42.264;23.826;2023-04-07T03:25:27;93522.22;;;0.54;54.80
61870;BME280;47810;42.264;23.826;2023-04-07T03:27:52;93517.53;;;0.65;54.09
61870;BME280;47810;42.264;23.826;2023-04-07T03:30:18;93522.72;;;0.65;53.62
61870;BME280;47810;42.264;23.826;2023-04-07T03:32:43;93521.25;;;0.58;54.22
61870;BME280;47810;42.264;23.826;2023-04-07T03:35:09;93521.72;;;0.69;53.18
61870;BME280;47810;42.264;23.826;2023-04-07T03:37:35;93519.41;;;0.60;52.99
61870;BME280;47810;42.264;23.826;2023-04-07T03:40:00;93518.19;;;0.72;53.91
61870;BME280;47810;42.264;23.826;2023-04-07T03:42:26;93519.13;;;0.69;52.46
61870;BME280;47810;42.264;23.826;2023-04-07T03:44:51;93517.84;;;0.56;52.83
61870;BME280;47810;42.264;23.826;2023-04-07T03:47:17;93530.91;;;0.80;53.84
61870;BME280;47810;42.264;23.826;2023-04-07T03:49:45;93529.16;;;0.54;52.81
61870;BME280;47810;42.264;23.826;2023-04-07T03:52:11;93527.28;;;0.59;53.90
61870;BME280;47810;42.264;23.826;2023-04-07T03:54:36;93520.81;;;0.70;53.38
61870;BME280;47810;42.264;23.826;2023-04-07T03:57:02;93525.81;;;0.77;53.52
61870;BME280;47810;42.264;23.826;2023-04-07T03:59:28;93534.50;;;0.76;53.60
61870;BME280;47810;42.264;23.826;2023-04-07T04:01:53;93527.63;;;0.75;52.43
61870;BME280;47810;42.264;23.826;2023-04-07T04:04:21;93529.81;;;0.60;52.14
61870;BME280;47810;42.264;23.826;2023-04-07T04:06:48;93531.34;;;0.67;52.80
61870;BME280;47810;42.264;23.826;2023-04-07T04:09:14;93536.41;;;0.70;52.37
61870;BME280;47810;42.264;23.826;2023-04-07T04:11:40;93540.53;;;0.78;52.50
61870;BME280;47810;42.264;23.826;2023-04-07T04:14:06;93534.84;;;0.91;50.98
61870;BME280;47810;42.264;23.826;2023-04-07T04:16:31;93543.66;;;0.87;51.24
61870;BME280;47810;42.264;23.826;2023-04-07T04:18:59;93538.41;;;0.89;50.45
61870;BME280;47810;42.264;23.826;2023-04-07T04:21:25;93548.88;;;0.86;51.25
61870;BME280;47810;42.264;23.826;2023-04-07T04:23:51;93552.13;;;0.92;50.86
61870;BME280;47810;42.264;23.826;2023-04-07T04:26:17;93550.13;;;1.01;50.25
61870;BME280;47810;42.264;23.826;2023-04-07T04:28:42;93559.19;;;0.89;50.64
61870;BME280;47810;42.264;23.826;2023-04-07T04:31:08;93563.59;;;0.87;50.79
61870;BME280;47810;42.264;23.826;2023-04-07T04:33:34;93571.53;;;0.82;51.00
61870;BME280;47810;42.264;23.826;2023-04-07T04:35:59;93555.72;;;0.90;50.78
61870;BME280;47810;42.264;23.826;2023-04-07T04:38:25;93561.59;;;0.95;51.02
61870;BME280;47810;42.264;23.826;2023-04-07T04:40:50;93567.09;;;0.86;50.52
61870;BME280;47810;42.264;23.826;2023-04-07T04:43:16;93570.50;;;0.88;51.21
61870;BME280;47810;42.264;23.826;2023-04-07T04:45:42;93571.78;;;1.01;51.24
61870;BME280;47810;42.264;23.826;2023-04-07T04:48:07;93569.19;;;1.01;51.05
61870;BME280;47810;42.264;23.826;2023-04-07T04:50:33;93577.19;;;0.95;51.47
61870;BME280;47810;42.264;23.826;2023-04-07T04:53:00;93577.06;;;0.98;51.80
61870;BME280;47810;42.264;23.826;2023-04-07T04:55:26;93577.28;;;0.92;51.23
61870;BME280;47810;42.264;23.826;2023-04-07T04:57:52;93591.25;;;1.14;51.10
61870;BME280;47810;42.264;23.826;2023-04-07T05:00:17;93582.63;;;1.14;51.20
61870;BME280;47810;42.264;23.826;2023-04-07T05:02:43;93580.09;;;1.12;51.81
61870;BME280;47810;42.264;23.826;2023-04-07T05:05:11;93588.03;;;1.33;51.75
61870;BME280;47810;42.264;23.826;2023-04-07T05:07:36;93587.94;;;1.36;49.59
61870;BME280;47810;42.264;23.826;2023-04-07T05:10:05;93574.13;;;1.34;50.04
61870;BME280;47810;42.264;23.826;2023-04-07T05:12:31;93578.44;;;1.35;49.34
61870;BME280;47810;42.264;23.826;2023-04-07T05:14:56;93590.69;;;1.56;50.17
61870;BME280;47810;42.264;23.826;2023-04-07T05:17:22;93588.47;;;1.46;49.46
61870;BME280;47810;42.264;23.826;2023-04-07T05:22:32;93580.88;;;1.65;50.46
61870;BME280;47810;42.264;23.826;2023-04-07T05:24:57;93587.53;;;1.72;50.82
61870;BME280;47810;42.264;23.826;2023-04-07T05:27:23;93584.25;;;1.67;51.29
61870;BME280;47810;42.264;23.826;2023-04-07T05:29:48;93585.63;;;1.77;51.11
61870;BME280;47810;42.264;23.826;2023-04-07T05:32:14;93580.78;;;1.66;49.78
61870;BME280;47810;42.264;23.826;2023-04-07T05:34:39;93582.22;;;1.75;49.97
61870;BME280;47810;42.264;23.826;2023-04-07T05:37:05;93578.78;;;1.74;50.49
61870;BME280;47810;42.264;23.826;2023-04-07T05:39:31;93587.78;;;1.89;49.73
61870;BME280;47810;42.264;23.826;2023-04-07T05:41:56;93581.16;;;2.04;50.49
61870;BME280;47810;42.264;23.826;2023-04-07T05:44:22;93587.31;;;2.01;50.90
61870;BME280;47810;42.264;23.826;2023-04-07T05:46:47;93584.84;;;2.22;50.47
61870;BME280;47810;42.264;23.826;2023-04-07T05:49:13;93580.75;;;2.38;49.40
61870;BME280;47810;42.264;23.826;2023-04-07T05:51:38;93578.69;;;2.46;49.50
61870;BME280;47810;42.264;23.826;2023-04-07T05:54:04;93581.88;;;2.53;48.95
61870;BME280;47810;42.264;23.826;2023-04-07T05:56:30;93574.03;;;2.54;46.94
61870;BME280;47810;42.264;23.826;2023-04-07T05:58:56;93586.38;;;2.71;48.46
61870;BME280;47810;42.264;23.826;2023-04-07T06:01:23;93581.25;;;2.70;47.62
61870;BME280;47810;42.264;23.826;2023-04-07T06:03:48;93581.81;;;2.98;47.03
61870;BME280;47810;42.264;23.826;2023-04-07T06:06:14;93581.28;;;2.90;47.53
61870;BME280;47810;42.264;23.826;2023-04-07T06:08:39;93572.75;;;2.87;47.12
61870;BME280;47810;42.264;23.826;2023-04-07T06:11:05;93589.00;;;2.93;47.18
61870;BME280;47810;42.264;23.826;2023-04-07T06:13:31;93581.66;;;2.81;47.37
61870;BME280;47810;42.264;23.826;2023-04-07T06:15:56;93574.53;;;3.07;46.15
61870;BME280;47810;42.264;23.826;2023-04-07T06:18:22;93562.16;;;3.12;46.94
61870;BME280;47810;42.264;23.826;2023-04-07T06:20:47;93573.94;;;3.00;45.92
61870;BME280;47810;42.264;23.826;2023-04-07T06:23:13;93567.50;;;3.09;47.51
61870;BME280;47810;42.264;23.826;2023-04-07T06:25:38;93577.41;;;3.21;46.94
61870;BME280;47810;42.264;23.826;2023-04-07T06:28:04;93568.44;;;3.28;46.74
61870;BME280;47810;42.264;23.826;2023-04-07T06:30:30;93569.47;;;3.44;47.28
61870;BME280;47810;42.264;23.826;2023-04-07T06:32:56;93573.50;;;3.52;46.91
61870;BME280;47810;42.264;23.826;2023-04-07T06:35:21;93563.59;;;3.60;47.33
61870;BME280;47810;42.264;23.826;2023-04-07T06:37:47;93567.72;;;3.84;46.79
61870;BME280;47810;42.264;23.826;2023-04-07T06:40:12;93566.94;;;4.03;46.68
61870;BME280;47810;42.264;23.826;2023-04-07T06:42:38;93568.66;;;3.83;46.45
61870;BME280;47810;42.264;23.826;2023-04-07T06:45:03;93562.66;;;3.81;47.00
61870;BME280;47810;42.264;23.826;2023-04-07T06:47:29;93567.97;;;3.99;46.95
61870;BME280;47810;42.264;23.826;2023-04-07T06:49:54;93570.16;;;3.89;46.43
61870;BME280;47810;42.264;23.826;2023-04-07T06:52:20;93566.13;;;4.01;46.34
61870;BME280;47810;42.264;23.826;2023-04-07T06:54:46;93567.78;;;4.22;47.19
61870;BME280;47810;42.264;23.826;2023-04-07T06:57:11;93567.38;;;4.31;46.78
61870;BME280;47810;42.264;23.826;2023-04-07T06:59:37;93574.00;;;4.38;45.82
61870;BME280;47810;42.264;23.826;2023-04-07T07:02:03;93569.88;;;4.52;45.89
61870;BME280;47810;42.264;23.826;2023-04-07T07:04:28;93575.34;;;4.47;46.93
61870;BME280;47810;42.264;23.826;2023-04-07T07:06:54;93565.91;;;4.62;46.23
61870;BME280;47810;42.264;23.826;2023-04-07T07:09:20;93556.75;;;4.72;46.10
61870;BME280;47810;42.264;23.826;2023-04-07T07:11:50;93568.75;;;4.76;46.02
61870;BME280;47810;42.264;23.826;2023-04-07T07:14:15;93570.53;;;4.76;45.25
61870;BME280;47810;42.264;23.826;2023-04-07T07:16:41;93564.47;;;4.93;46.33
61870;BME280;47810;42.264;23.826;2023-04-07T07:19:06;93564.56;;;5.08;45.22
61870;BME280;47810;42.264;23.826;2023-04-07T07:21:32;93579.28;;;5.28;44.12
61870;BME280;47810;42.264;23.826;2023-04-07T07:23:57;93573.44;;;5.23;43.64
61870;BME280;47810;42.264;23.826;2023-04-07T07:26:23;93574.66;;;5.51;43.74
61870;BME280;47810;42.264;23.826;2023-04-07T07:28:48;93574.69;;;5.68;43.41
61870;BME280;47810;42.264;23.826;2023-04-07T07:31:14;93580.91;;;5.66;43.93
61870;BME280;47810;42.264;23.826;2023-04-07T07:33:40;93575.75;;;5.81;42.42
61870;BME280;47810;42.264;23.826;2023-04-07T07:36:07;93570.91;;;6.24;43.79
61870;BME280;47810;42.264;23.826;2023-04-07T07:38:33;93568.91;;;6.77;43.05
61870;BME280;47810;42.264;23.826;2023-04-07T07:40:59;93574.75;;;6.66;42.21
61870;BME280;47810;42.264;23.826;2023-04-07T07:43:26;93566.97;;;6.65;40.95
61870;BME280;47810;42.264;23.826;2023-04-07T07:45:52;93564.91;;;7.17;42.36
61870;BME280;47810;42.264;23.826;2023-04-07T07:48:18;93563.22;;;7.16;43.60
61870;BME280;47810;42.264;23.826;2023-04-07T07:50:43;93578.19;;;7.14;43.50
61870;BME280;47810;42.264;23.826;2023-04-07T07:53:09;93572.63;;;7.35;40.72
61870;BME280;47810;42.264;23.826;2023-04-07T07:55:35;93569.25;;;7.93;41.80
61870;BME280;47810;42.264;23.826;2023-04-07T07:58:00;93570.22;;;8.35;39.44
61870;BME280;47810;42.264;23.826;2023-04-07T08:00:26;93563.81;;;8.53;39.69
61870;BME280;47810;42.264;23.826;2023-04-07T08:02:52;93568.72;;;8.59;39.60
61870;BME280;47810;42.264;23.826;2023-04-07T08:05:20;93566.72;;;8.34;39.86
61870;BME280;47810;42.264;23.826;2023-04-07T08:07:46;93570.81;;;8.54;39.25
61870;BME280;47810;42.264;23.826;2023-04-07T08:10:12;93567.94;;;8.86;37.98
61870;BME280;47810;42.264;23.826;2023-04-07T08:12:41;93573.03;;;8.75;39.98
61870;BME280;47810;42.264;23.826;2023-04-07T08:15:07;93561.78;;;8.58;39.44
61870;BME280;47810;42.264;23.826;2023-04-07T08:17:34;93568.31;;;9.21;38.20
61870;BME280;47810;42.264;23.826;2023-04-07T08:20:00;93571.03;;;9.60;37.82
61870;BME280;47810;42.264;23.826;2023-04-07T08:22:26;93563.19;;;9.32;40.05
61870;BME280;47810;42.264;23.826;2023-04-07T08:24:51;93565.13;;;9.16;39.53
61870;BME280;47810;42.264;23.826;2023-04-07T08:27:17;93568.59;;;9.17;40.01
61870;BME280;47810;42.264;23.826;2023-04-07T08:29:42;93564.13;;;9.04;42.59
61870;BME280;47810;42.264;23.826;2023-04-07T08:32:08;93571.47;;;9.53;39.86
61870;BME280;47810;42.264;23.826;2023-04-07T08:34:33;93571.19;;;9.71;37.60
61870;BME280;47810;42.264;23.826;2023-04-07T08:36:59;93571.88;;;9.47;37.04
61870;BME280;47810;42.264;23.826;2023-04-07T08:39:25;93554.91;;;10.42;36.07
61870;BME280;47810;42.264;23.826;2023-04-07T08:41:51;93556.41;;;10.46;35.37
61870;BME280;47810;42.264;23.826;2023-04-07T08:44:17;93552.47;;;10.65;38.37
61870;BME280;47810;42.264;23.826;2023-04-07T08:46:46;93550.34;;;10.70;35.44
61870;BME280;47810;42.264;23.826;2023-04-07T08:49:13;93549.22;;;10.48;35.78
61870;BME280;47810;42.264;23.826;2023-04-07T08:51:43;93543.91;;;10.74;35.73
61870;BME280;47810;42.264;23.826;2023-04-07T08:54:10;93543.75;;;11.25;35.52
61870;BME280;47810;42.264;23.826;2023-04-07T08:56:36;93549.16;;;10.87;35.61
61870;BME280;47810;42.264;23.826;2023-04-07T08:59:04;93546.28;;;10.40;36.32
61870;BME280;47810;42.264;23.826;2023-04-07T09:01:30;93544.50;;;10.78;39.29
61870;BME280;47810;42.264;23.826;2023-04-07T09:03:56;93538.13;;;11.54;34.35
61870;BME280;47810;42.264;23.826;2023-04-07T09:06:23;93540.66;;;11.91;35.35
61870;BME280;47810;42.264;23.826;2023-04-07T09:08:48;93539.22;;;12.33;36.10
61870;BME280;47810;42.264;23.826;2023-04-07T09:11:14;93544.56;;;12.09;37.80
61870;BME280;47810;42.264;23.826;2023-04-07T09:13:39;93534.50;;;11.07;33.41
61870;BME280;47810;42.264;23.826;2023-04-07T09:16:05;93548.16;;;11.49;35.12
61870;BME280;47810;42.264;23.826;2023-04-07T09:18:31;93538.09;;;11.06;36.68
61870;BME280;47810;42.264;23.826;2023-04-07T09:21:02;93544.34;;;11.05;35.13
61870;BME280;47810;42.264;23.826;2023-04-07T09:23:29;93561.50;;;9.84;37.81
61870;BME280;47810;42.264;23.826;2023-04-07T09:25:56;93548.72;;;10.43;37.05
61870;BME280;47810;42.264;23.826;2023-04-07T09:28:24;93546.38;;;11.49;36.17
61870;BME280;47810;42.264;23.826;2023-04-07T09:30:54;93548.06;;;11.50;35.72
61870;BME280;47810;42.264;23.826;2023-04-07T09:33:26;93552.06;;;11.32;35.83
61870;BME280;47810;42.264;23.826;2023-04-07T09:35:52;93547.88;;;11.88;35.76
61870;BME280;47810;42.264;23.826;2023-04-07T09:38:18;93551.22;;;12.26;33.02
61870;BME280;47810;42.264;23.826;2023-04-07T09:40:43;93542.94;;;12.53;33.52
61870;BME280;47810;42.264;23.826;2023-04-07T09:43:13;93542.66;;;13.23;33.75
61870;BME280;47810;42.264;23.826;2023-04-07T09:45:39;93534.00;;;12.99;31.92
61870;BME280;47810;42.264;23.826;2023-04-07T09:48:06;93540.00;;;11.52;37.24
61870;BME280;47810;42.264;23.826;2023-04-07T09:50:37;93539.72;;;11.92;34.66
61870;BME280;47810;42.264;23.826;2023-04-07T09:53:03;93539.78;;;12.93;33.72
61870;BME280;47810;42.264;23.826;2023-04-07T09:55:29;93532.28;;;13.20;33.83
61870;BME280;47810;42.264;23.826;2023-04-07T09:57:55;93530.16;;;13.58;33.08
61870;BME280;47810;42.264;23.826;2023-04-07T10:00:20;93534.94;;;13.32;34.27
61870;BME280;47810;42.264;23.826;2023-04-07T10:02:46;93528.72;;;13.86;33.85
61870;BME280;47810;42.264;23.826;2023-04-07T10:05:12;93533.03;;;14.19;32.90
61870;BME280;47810;42.264;23.826;2023-04-07T10:07:38;93530.78;;;14.66;31.68
61870;BME280;47810;42.264;23.826;2023-04-07T10:10:03;93531.44;;;14.89;32.88
61870;BME280;47810;42.264;23.826;2023-04-07T10:12:32;93534.63;;;14.83;32.28
61870;BME280;47810;42.264;23.826;2023-04-07T10:14:58;93531.84;;;13.59;33.92
61870;BME280;47810;42.264;23.826;2023-04-07T10:17:27;93537.28;;;12.69;33.35
61870;BME280;47810;42.264;23.826;2023-04-07T10:19:54;93537.41;;;13.56;31.57
61870;BME280;47810;42.264;23.826;2023-04-07T10:22:22;93523.91;;;13.47;34.01
61870;BME280;47810;42.264;23.826;2023-04-07T10:25:07;93525.09;;;13.87;32.77
61870;BME280;47810;42.264;23.826;2023-04-07T10:27:47;93504.44;;;14.84;32.63
61870;BME280;47810;42.264;23.826;2023-04-07T10:30:26;93511.97;;;15.29;31.75
61870;BME280;47810;42.264;23.826;2023-04-07T10:32:54;93507.63;;;15.28;30.95
61870;BME280;47810;42.264;23.826;2023-04-07T10:35:20;93511.06;;;15.69;33.79
61870;BME280;47810;42.264;23.826;2023-04-07T10:38:31;93506.53;;;14.08;30.90
61870;BME280;47810;42.264;23.826;2023-04-07T10:40:33;93508.81;;;15.04;32.27
61870;BME280;47810;42.264;23.826;2023-04-07T10:42:58;93519.13;;;14.15;34.62
61870;BME280;47810;42.264;23.826;2023-04-07T10:48:10;93526.50;;;13.70;32.18
61870;BME280;47810;42.264;23.826;2023-04-07T10:50:36;93522.44;;;13.11;33.50
61870;BME280;47810;42.264;23.826;2023-04-07T10:53:09;93517.91;;;14.61;34.37
61870;BME280;47810;42.264;23.826;2023-04-07T11:00:40;93515.25;;;14.61;34.51
61870;BME280;47810;42.264;23.826;2023-04-07T11:03:14;93524.72;;;13.27;33.84
61870;BME280;47810;42.264;23.826;2023-04-07T11:05:40;93513.50;;;14.09;33.88
61870;BME280;47810;42.264;23.826;2023-04-07T11:08:07;93510.53;;;14.75;31.16
61870;BME280;47810;42.264;23.826;2023-04-07T11:10:35;93511.94;;;14.27;32.10
61870;BME280;47810;42.264;23.826;2023-04-07T11:13:03;93522.50;;;13.75;33.73
61870;BME280;47810;42.264;23.826;2023-04-07T11:15:29;93522.28;;;13.67;31.36
61870;BME280;47810;42.264;23.826;2023-04-07T11:18:08;93514.03;;;13.82;32.08
61870;BME280;47810;42.264;23.826;2023-04-07T11:20:45;93518.75;;;14.20;35.24
61870;BME280;47810;42.264;23.826;2023-04-07T11:23:15;93511.72;;;14.51;30.51
61870;BME280;47810;42.264;23.826;2023-04-07T11:25:41;93519.22;;;14.04;36.12
61870;BME280;47810;42.264;23.826;2023-04-07T11:28:08;93523.94;;;12.81;33.98
61870;BME280;47810;42.264;23.826;2023-04-07T11:30:34;93529.31;;;13.57;33.81
61870;BME280;47810;42.264;23.826;2023-04-07T11:33:00;93520.56;;;12.46;34.22
61870;BME280;47810;42.264;23.826;2023-04-07T11:35:26;93523.34;;;13.44;37.40
61870;BME280;47810;42.264;23.826;2023-04-07T11:37:58;93517.41;;;14.05;33.94
61870;BME280;47810;42.264;23.826;2023-04-07T11:40:33;93513.00;;;14.66;32.44
61870;BME280;47810;42.264;23.826;2023-04-07T11:43:00;93512.78;;;15.20;34.82
61870;BME280;47810;42.264;23.826;2023-04-07T11:45:29;93517.66;;;15.14;30.63
61870;BME280;47810;42.264;23.826;2023-04-07T11:47:55;93516.78;;;14.95;31.43
61870;BME280;47810;42.264;23.826;2023-04-07T11:50:40;93521.53;;;14.91;34.16
61870;BME280;47810;42.264;23.826;2023-04-07T11:53:07;93520.06;;;14.26;35.97
61870;BME280;47810;42.264;23.826;2023-04-07T11:55:33;93528.69;;;13.97;31.96
61870;BME280;47810;42.264;23.826;2023-04-07T11:58:05;93527.94;;;13.95;31.74
61870;BME280;47810;42.264;23.826;2023-04-07T12:00:31;93527.69;;;13.98;34.78
61870;BME280;47810;42.264;23.826;2023-04-07T12:03:08;93531.59;;;13.94;33.64
61870;BME280;47810;42.264;23.826;2023-04-07T12:05:43;93522.38;;;13.98;33.74
61870;BME280;47810;42.264;23.826;2023-04-07T12:08:09;93527.63;;;13.56;33.38
61870;BME280;47810;42.264;23.826;2023-04-07T12:10:35;93528.38;;;13.47;35.02
61870;BME280;47810;42.264;23.826;2023-04-07T12:13:01;93531.59;;;13.62;37.25
61870;BME280;47810;42.264;23.826;2023-04-07T12:15:26;93530.06;;;13.48;34.31
61870;BME280;47810;42.264;23.826;2023-04-07T12:17:52;93535.28;;;13.70;33.58
61870;BME280;47810;42.264;23.826;2023-04-07T12:20:19;93538.28;;;13.45;34.50
61870;BME280;47810;42.264;23.826;2023-04-07T12:22:45;93542.56;;;13.68;37.21
61870;BME280;47810;42.264;23.826;2023-04-07T12:25:11;93538.72;;;13.61;35.84
61870;BME280;47810;42.264;23.826;2023-04-07T12:27:37;93542.22;;;13.62;36.77
61870;BME280;47810;42.264;23.826;2023-04-07T12:30:02;93539.47;;;13.84;35.82
61870;BME280;47810;42.264;23.826;2023-04-07T12:32:28;93544.00;;;14.14;36.10
61870;BME280;47810;42.264;23.826;2023-04-07T12:34:54;93536.50;;;13.78;34.46
61870;BME280;47810;42.264;23.826;2023-04-07T12:37:19;93542.19;;;14.15;32.30
61870;BME280;47810;42.264;23.826;2023-04-07T12:39:45;93529.19;;;14.54;31.80
61870;BME280;47810;42.264;23.826;2023-04-07T12:42:10;93536.69;;;14.49;34.38
61870;BME280;47810;42.264;23.826;2023-04-07T12:44:36;93536.50;;;14.61;36.00
61870;BME280;47810;42.264;23.826;2023-04-07T12:47:02;93542.91;;;14.59;32.92
61870;BME280;47810;42.264;23.826;2023-04-07T12:49:27;93541.13;;;14.90;34.82
61870;BME280;47810;42.264;23.826;2023-04-07T12:51:53;93541.22;;;15.19;33.27
61870;BME280;47810;42.264;23.826;2023-04-07T12:54:19;93532.75;;;15.54;33.01
61870;BME280;47810;42.264;23.826;2023-04-07T12:56:44;93535.47;;;15.74;32.06
61870;BME280;47810;42.264;23.826;2023-04-07T12:59:10;93540.50;;;15.77;31.22
61870;BME280;47810;42.264;23.826;2023-04-07T13:01:38;93543.31;;;15.16;32.25
61870;BME280;47810;42.264;23.826;2023-04-07T13:04:03;93555.63;;;14.86;30.91
61870;BME280;47810;42.264;23.826;2023-04-07T13:06:30;93548.28;;;14.68;34.24
61870;BME280;47810;42.264;23.826;2023-04-07T13:08:56;93547.31;;;15.00;31.83
61870;BME280;47810;42.264;23.826;2023-04-07T13:11:24;93554.41;;;14.90;33.29
61870;BME280;47810;42.264;23.826;2023-04-07T13:13:49;93552.28;;;14.84;33.37
61870;BME280;47810;42.264;23.826;2023-04-07T13:16:15;93548.03;;;14.72;32.10